sensor_id;sensor_type;location;lat;lon;timestamp;P1;durP1;ratioP1;P2;durP2;ratioP2
50350;SDS011;36250;48.740;22.174;2023-06-24T00:00:16;15.68;;;8.70;;
50350;SDS011;36250;48.740;22.174;2023-06-24T00:02:44;20.85;;;8.35;;
50350;SDS011;36250;48.740;22.174;2023-06-24T00:05:10;18.90;;;8.93;;
50350;SDS011;36250;48.740;22.174;2023-06-24T00:07:35;17.45;;;7.82;;
50350;SDS011;36250;48.740;22.174;2023-06-24T00:10:09;11.80;;;7.35;;
50350;SDS011;36250;48.740;22.174;2023-06-24T00:12:35;17.30;;;8.50;;
50350;SDS011;36250;48.740;22.174;2023-06-24T00:15:00;13.32;;;7.85;;
50350;SDS011;36250;48.740;22.174;2023-06-24T00:17:26;17.58;;;8.13;;
50350;SDS011;36250;48.740;22.174;2023-06-24T00:19:53;15.82;;;7.95;;
50350;SDS011;36250;48.740;22.174;2023-06-24T00:22:19;16.00;;;8.45;;
50350;SDS011;36250;48.740;22.174;2023-06-24T00:24:45;15.00;;;7.57;;
50350;SDS011;36250;48.740;22.174;2023-06-24T00:27:10;16.88;;;8.27;;
50350;SDS011;36250;48.740;22.174;2023-06-24T00:29:35;17.20;;;8.00;;
50350;SDS011;36250;48.740;22.174;2023-06-24T00:32:01;16.88;;;8.23;;
50350;SDS011;36250;48.740;22.174;2023-06-24T00:34:26;14.43;;;7.78;;
50350;SDS011;36250;48.740;22.174;2023-06-24T00:36:52;19.27;;;7.88;;
50350;SDS011;36250;48.740;22.174;2023-06-24T00:39:17;10.45;;;8.50;;
50350;SDS011;36250;48.740;22.174;2023-06-24T00:41:42;17.02;;;8.40;;
50350;SDS011;36250;48.740;22.174;2023-06-24T00:44:08;17.90;;;8.35;;
50350;SDS011;36250;48.740;22.174;2023-06-24T00:46:34;9.65;;;6.68;;
50350;SDS011;36250;48.740;22.174;2023-06-24T00:48:59;14.00;;;7.50;;
50350;SDS011;36250;48.740;22.174;2023-06-24T00:51:27;12.07;;;7.10;;
50350;SDS011;36250;48.740;22.174;2023-06-24T00:53:57;11.95;;;7.57;;
50350;SDS011;36250;48.740;22.174;2023-06-24T00:56:25;10.63;;;7.32;;
50350;SDS011;36250;48.740;22.174;2023-06-24T00:58:54;11.50;;;6.57;;
50350;SDS011;36250;48.740;22.174;2023-06-24T01:01:22;12.32;;;7.20;;
50350;SDS011;36250;48.740;22.174;2023-06-24T01:03:48;15.00;;;6.70;;
50350;SDS011;36250;48.740;22.174;2023-06-24T01:06:14;13.65;;;7.15;;
50350;SDS011;36250;48.740;22.174;2023-06-24T01:08:40;20.48;;;7.93;;
50350;SDS011;36250;48.740;22.174;2023-06-24T01:11:05;15.32;;;6.63;;
50350;SDS011;36250;48.740;22.174;2023-06-24T01:13:31;15.45;;;7.32;;
50350;SDS011;36250;48.740;22.174;2023-06-24T01:15:57;15.65;;;7.07;;
50350;SDS011;36250;48.740;22.174;2023-06-24T01:18:32;13.25;;;7.03;;
50350;SDS011;36250;48.740;22.174;2023-06-24T01:23:53;20.33;;;7.50;;
50350;SDS011;36250;48.740;22.174;2023-06-24T01:26:23;15.48;;;7.45;;
50350;SDS011;36250;48.740;22.174;2023-06-24T01:28:59;17.13;;;8.50;;
50350;SDS011;36250;48.740;22.174;2023-06-24T01:34:18;27.20;;;8.93;;
50350;SDS011;36250;48.740;22.174;2023-06-24T01:36:47;15.23;;;7.07;;
50350;SDS011;36250;48.740;22.174;2023-06-24T01:39:19;15.90;;;7.07;;
50350;SDS011;36250;48.740;22.174;2023-06-24T01:41:51;15.57;;;7.25;;
50350;SDS011;36250;48.740;22.174;2023-06-24T01:44:24;18.63;;;7.88;;
50350;SDS011;36250;48.740;22.174;2023-06-24T01:46:51;16.45;;;7.53;;
50350;SDS011;36250;48.740;22.174;2023-06-24T01:49:19;13.98;;;8.02;;
50350;SDS011;36250;48.740;22.174;2023-06-24T01:51:46;19.67;;;8.63;;
50350;SDS011;36250;48.740;22.174;2023-06-24T01:54:13;12.98;;;7.88;;
50350;SDS011;36250;48.740;22.174;2023-06-24T01:56:44;17.08;;;9.55;;
50350;SDS011;36250;48.740;22.174;2023-06-24T01:59:10;17.95;;;9.13;;
50350;SDS011;36250;48.740;22.174;2023-06-24T02:01:37;15.27;;;7.97;;
50350;SDS011;36250;48.740;22.174;2023-06-24T02:04:05;15.27;;;8.20;;
50350;SDS011;36250;48.740;22.174;2023-06-24T02:06:33;17.35;;;8.73;;
50350;SDS011;36250;48.740;22.174;2023-06-24T02:09:01;12.13;;;7.65;;
50350;SDS011;36250;48.740;22.174;2023-06-24T02:11:28;19.20;;;8.35;;
50350;SDS011;36250;48.740;22.174;2023-06-24T02:13:56;18.02;;;7.72;;
50350;SDS011;36250;48.740;22.174;2023-06-24T02:16:25;18.63;;;7.88;;
50350;SDS011;36250;48.740;22.174;2023-06-24T02:18:52;17.50;;;7.03;;
50350;SDS011;36250;48.740;22.174;2023-06-24T02:21:20;15.85;;;7.50;;
50350;SDS011;36250;48.740;22.174;2023-06-24T02:23:46;18.15;;;7.50;;
50350;SDS011;36250;48.740;22.174;2023-06-24T02:26:13;17.85;;;6.68;;
50350;SDS011;36250;48.740;22.174;2023-06-24T02:28:40;12.15;;;7.78;;
50350;SDS011;36250;48.740;22.174;2023-06-24T02:31:06;14.80;;;6.53;;
50350;SDS011;36250;48.740;22.174;2023-06-24T02:33:35;13.82;;;7.70;;
50350;SDS011;36250;48.740;22.174;2023-06-24T02:36:00;15.65;;;7.57;;
50350;SDS011;36250;48.740;22.174;2023-06-24T02:38:26;17.42;;;8.20;;
50350;SDS011;36250;48.740;22.174;2023-06-24T02:40:51;17.83;;;7.45;;
50350;SDS011;36250;48.740;22.174;2023-06-24T02:43:17;18.50;;;8.45;;
50350;SDS011;36250;48.740;22.174;2023-06-24T02:45:42;17.35;;;6.70;;
50350;SDS011;36250;48.740;22.174;2023-06-24T02:48:09;15.02;;;6.53;;
50350;SDS011;36250;48.740;22.174;2023-06-24T02:50:36;15.60;;;7.18;;
50350;SDS011;36250;48.740;22.174;2023-06-24T02:53:05;14.23;;;6.97;;
50350;SDS011;36250;48.740;22.174;2023-06-24T02:55:30;16.05;;;6.35;;
50350;SDS011;36250;48.740;22.174;2023-06-24T02:57:58;11.65;;;6.35;;
50350;SDS011;36250;48.740;22.174;2023-06-24T03:00:24;12.43;;;5.72;;
50350;SDS011;36250;48.740;22.174;2023-06-24T03:02:50;17.33;;;6.20;;
50350;SDS011;36250;48.740;22.174;2023-06-24T03:05:16;12.55;;;5.25;;
50350;SDS011;36250;48.740;22.174;2023-06-24T03:07:43;13.13;;;6.22;;
50350;SDS011;36250;48.740;22.174;2023-06-24T03:10:10;16.67;;;6.32;;
50350;SDS011;36250;48.740;22.174;2023-06-24T03:12:35;12.00;;;6.45;;
50350;SDS011;36250;48.740;22.174;2023-06-24T03:15:01;16.15;;;5.60;;
50350;SDS011;36250;48.740;22.174;2023-06-24T03:17:26;11.77;;;4.72;;
50350;SDS011;36250;48.740;22.174;2023-06-24T03:19:52;14.25;;;6.22;;
50350;SDS011;36250;48.740;22.174;2023-06-24T03:22:17;21.33;;;6.45;;
50350;SDS011;36250;48.740;22.174;2023-06-24T03:24:43;15.43;;;6.90;;
50350;SDS011;36250;48.740;22.174;2023-06-24T03:27:08;20.45;;;7.22;;
50350;SDS011;36250;48.740;22.174;2023-06-24T03:29:34;18.52;;;7.35;;
50350;SDS011;36250;48.740;22.174;2023-06-24T03:31:59;12.98;;;6.75;;
50350;SDS011;36250;48.740;22.174;2023-06-24T03:34:25;16.92;;;6.28;;
50350;SDS011;36250;48.740;22.174;2023-06-24T03:36:52;10.80;;;5.82;;
50350;SDS011;36250;48.740;22.174;2023-06-24T03:39:19;25.33;;;7.53;;
50350;SDS011;36250;48.740;22.174;2023-06-24T03:41:45;16.60;;;6.82;;
50350;SDS011;36250;48.740;22.174;2023-06-24T03:44:10;16.42;;;6.53;;
50350;SDS011;36250;48.740;22.174;2023-06-24T03:46:35;21.30;;;6.22;;
50350;SDS011;36250;48.740;22.174;2023-06-24T03:49:01;27.60;;;7.28;;
50350;SDS011;36250;48.740;22.174;2023-06-24T03:51:26;20.85;;;7.82;;
50350;SDS011;36250;48.740;22.174;2023-06-24T03:53:51;25.08;;;7.93;;
50350;SDS011;36250;48.740;22.174;2023-06-24T03:56:17;11.82;;;5.95;;
50350;SDS011;36250;48.740;22.174;2023-06-24T03:58:42;17.65;;;7.03;;
50350;SDS011;36250;48.740;22.174;2023-06-24T04:01:09;23.25;;;7.90;;
50350;SDS011;36250;48.740;22.174;2023-06-24T04:03:34;16.40;;;7.60;;
50350;SDS011;36250;48.740;22.174;2023-06-24T04:06:00;12.48;;;6.95;;
50350;SDS011;36250;48.740;22.174;2023-06-24T04:08:28;11.13;;;6.40;;
50350;SDS011;36250;48.740;22.174;2023-06-24T04:10:54;22.25;;;7.82;;
50350;SDS011;36250;48.740;22.174;2023-06-24T04:13:21;20.13;;;8.00;;
50350;SDS011;36250;48.740;22.174;2023-06-24T04:15:47;12.32;;;7.28;;
50350;SDS011;36250;48.740;22.174;2023-06-24T04:18:12;19.15;;;7.43;;
50350;SDS011;36250;48.740;22.174;2023-06-24T04:20:37;15.77;;;7.45;;
50350;SDS011;36250;48.740;22.174;2023-06-24T04:23:03;16.30;;;7.10;;
50350;SDS011;36250;48.740;22.174;2023-06-24T04:25:30;13.68;;;6.50;;
50350;SDS011;36250;48.740;22.174;2023-06-24T04:27:56;19.58;;;7.30;;
50350;SDS011;36250;48.740;22.174;2023-06-24T04:30:22;21.63;;;8.20;;
50350;SDS011;36250;48.740;22.174;2023-06-24T04:32:47;15.10;;;7.05;;
50350;SDS011;36250;48.740;22.174;2023-06-24T04:35:12;16.35;;;6.35;;
50350;SDS011;36250;48.740;22.174;2023-06-24T04:37:38;15.55;;;6.68;;
50350;SDS011;36250;48.740;22.174;2023-06-24T04:40:03;18.45;;;7.53;;
50350;SDS011;36250;48.740;22.174;2023-06-24T04:42:29;17.48;;;7.68;;
50350;SDS011;36250;48.740;22.174;2023-06-24T04:44:55;15.43;;;6.93;;
50350;SDS011;36250;48.740;22.174;2023-06-24T04:47:20;14.15;;;7.18;;
50350;SDS011;36250;48.740;22.174;2023-06-24T04:49:45;15.10;;;7.00;;
50350;SDS011;36250;48.740;22.174;2023-06-24T04:52:11;17.10;;;6.95;;
50350;SDS011;36250;48.740;22.174;2023-06-24T04:54:37;16.17;;;7.80;;
50350;SDS011;36250;48.740;22.174;2023-06-24T04:57:02;16.75;;;6.78;;
50350;SDS011;36250;48.740;22.174;2023-06-24T04:59:30;16.15;;;7.13;;
50350;SDS011;36250;48.740;22.174;2023-06-24T05:01:56;17.58;;;7.72;;
50350;SDS011;36250;48.740;22.174;2023-06-24T05:04:21;17.23;;;6.80;;
50350;SDS011;36250;48.740;22.174;2023-06-24T05:06:46;16.48;;;6.32;;
50350;SDS011;36250;48.740;22.174;2023-06-24T05:09:12;15.23;;;6.53;;
50350;SDS011;36250;48.740;22.174;2023-06-24T05:11:39;21.23;;;6.80;;
50350;SDS011;36250;48.740;22.174;2023-06-24T05:14:05;15.48;;;6.03;;
50350;SDS011;36250;48.740;22.174;2023-06-24T05:16:31;21.98;;;7.15;;
50350;SDS011;36250;48.740;22.174;2023-06-24T05:18:56;17.23;;;7.32;;
50350;SDS011;36250;48.740;22.174;2023-06-24T05:21:21;24.05;;;7.60;;
50350;SDS011;36250;48.740;22.174;2023-06-24T05:23:47;15.73;;;5.78;;
50350;SDS011;36250;48.740;22.174;2023-06-24T05:26:12;14.30;;;6.07;;
50350;SDS011;36250;48.740;22.174;2023-06-24T05:28:37;14.73;;;6.00;;
50350;SDS011;36250;48.740;22.174;2023-06-24T05:31:03;13.95;;;6.30;;
50350;SDS011;36250;48.740;22.174;2023-06-24T05:33:28;20.02;;;6.57;;
50350;SDS011;36250;48.740;22.174;2023-06-24T05:35:53;11.90;;;5.53;;
50350;SDS011;36250;48.740;22.174;2023-06-24T05:38:19;15.23;;;6.30;;
50350;SDS011;36250;48.740;22.174;2023-06-24T05:40:44;20.83;;;5.80;;
50350;SDS011;36250;48.740;22.174;2023-06-24T05:43:09;13.98;;;5.93;;
50350;SDS011;36250;48.740;22.174;2023-06-24T05:45:35;18.80;;;5.32;;
50350;SDS011;36250;48.740;22.174;2023-06-24T05:48:02;15.55;;;6.22;;
50350;SDS011;36250;48.740;22.174;2023-06-24T05:50:28;13.98;;;5.65;;
50350;SDS011;36250;48.740;22.174;2023-06-24T05:52:53;14.77;;;5.43;;
50350;SDS011;36250;48.740;22.174;2023-06-24T05:55:18;14.80;;;5.82;;
50350;SDS011;36250;48.740;22.174;2023-06-24T05:57:44;11.77;;;5.20;;
50350;SDS011;36250;48.740;22.174;2023-06-24T06:00:09;14.40;;;5.30;;
50350;SDS011;36250;48.740;22.174;2023-06-24T06:02:35;12.18;;;5.18;;
50350;SDS011;36250;48.740;22.174;2023-06-24T06:05:00;12.90;;;5.25;;
50350;SDS011;36250;48.740;22.174;2023-06-24T06:07:26;17.73;;;5.40;;
50350;SDS011;36250;48.740;22.174;2023-06-24T06:09:52;15.10;;;5.63;;
50350;SDS011;36250;48.740;22.174;2023-06-24T06:12:17;11.65;;;4.85;;
50350;SDS011;36250;48.740;22.174;2023-06-24T06:14:42;12.98;;;5.50;;
50350;SDS011;36250;48.740;22.174;2023-06-24T06:17:08;13.48;;;5.13;;
50350;SDS011;36250;48.740;22.174;2023-06-24T06:19:33;13.07;;;5.15;;
50350;SDS011;36250;48.740;22.174;2023-06-24T06:21:58;10.88;;;4.95;;
50350;SDS011;36250;48.740;22.174;2023-06-24T06:24:24;13.77;;;5.38;;
50350;SDS011;36250;48.740;22.174;2023-06-24T06:26:49;19.90;;;6.30;;
50350;SDS011;36250;48.740;22.174;2023-06-24T06:29:14;11.45;;;5.47;;
50350;SDS011;36250;48.740;22.174;2023-06-24T06:31:40;14.57;;;5.80;;
50350;SDS011;36250;48.740;22.174;2023-06-24T06:34:05;13.35;;;6.28;;
50350;SDS011;36250;48.740;22.174;2023-06-24T06:36:30;14.10;;;6.10;;
50350;SDS011;36250;48.740;22.174;2023-06-24T06:38:56;12.52;;;5.65;;
50350;SDS011;36250;48.740;22.174;2023-06-24T06:41:21;9.02;;;5.45;;
50350;SDS011;36250;48.740;22.174;2023-06-24T06:43:52;12.82;;;5.90;;
50350;SDS011;36250;48.740;22.174;2023-06-24T06:46:18;12.38;;;5.72;;
50350;SDS011;36250;48.740;22.174;2023-06-24T06:48:44;18.52;;;6.78;;
50350;SDS011;36250;48.740;22.174;2023-06-24T06:51:09;16.67;;;7.18;;
50350;SDS011;36250;48.740;22.174;2023-06-24T06:53:34;13.50;;;6.55;;
50350;SDS011;36250;48.740;22.174;2023-06-24T06:56:00;13.13;;;6.32;;
50350;SDS011;36250;48.740;22.174;2023-06-24T06:58:25;14.70;;;5.93;;
50350;SDS011;36250;48.740;22.174;2023-06-24T07:00:51;9.70;;;5.70;;
50350;SDS011;36250;48.740;22.174;2023-06-24T07:03:16;11.25;;;5.15;;
50350;SDS011;36250;48.740;22.174;2023-06-24T07:05:42;13.50;;;5.55;;
50350;SDS011;36250;48.740;22.174;2023-06-24T07:08:07;11.65;;;5.53;;
50350;SDS011;36250;48.740;22.174;2023-06-24T07:10:32;17.02;;;5.95;;
50350;SDS011;36250;48.740;22.174;2023-06-24T07:12:58;11.88;;;6.15;;
50350;SDS011;36250;48.740;22.174;2023-06-24T07:15:24;18.17;;;5.13;;
50350;SDS011;36250;48.740;22.174;2023-06-24T07:17:51;16.35;;;5.60;;
50350;SDS011;36250;48.740;22.174;2023-06-24T07:20:16;20.70;;;6.78;;
50350;SDS011;36250;48.740;22.174;2023-06-24T07:22:42;9.73;;;5.72;;
50350;SDS011;36250;48.740;22.174;2023-06-24T07:25:07;12.23;;;5.68;;
50350;SDS011;36250;48.740;22.174;2023-06-24T07:27:32;13.27;;;6.35;;
50350;SDS011;36250;48.740;22.174;2023-06-24T07:29:58;12.27;;;5.72;;
50350;SDS011;36250;48.740;22.174;2023-06-24T07:32:23;13.63;;;5.70;;
50350;SDS011;36250;48.740;22.174;2023-06-24T07:34:48;17.77;;;5.82;;
50350;SDS011;36250;48.740;22.174;2023-06-24T07:37:14;17.75;;;6.47;;
50350;SDS011;36250;48.740;22.174;2023-06-24T07:39:39;10.43;;;6.18;;
50350;SDS011;36250;48.740;22.174;2023-06-24T07:42:04;8.52;;;5.50;;
50350;SDS011;36250;48.740;22.174;2023-06-24T07:44:30;10.70;;;5.68;;
50350;SDS011;36250;48.740;22.174;2023-06-24T07:46:55;18.63;;;6.53;;
50350;SDS011;36250;48.740;22.174;2023-06-24T07:49:20;10.75;;;5.63;;
50350;SDS011;36250;48.740;22.174;2023-06-24T07:51:46;7.80;;;5.07;;
50350;SDS011;36250;48.740;22.174;2023-06-24T07:54:11;9.98;;;6.15;;
50350;SDS011;36250;48.740;22.174;2023-06-24T07:56:36;13.98;;;5.75;;
50350;SDS011;36250;48.740;22.174;2023-06-24T07:59:02;12.05;;;6.63;;
50350;SDS011;36250;48.740;22.174;2023-06-24T08:01:28;14.50;;;6.03;;
50350;SDS011;36250;48.740;22.174;2023-06-24T08:03:53;14.52;;;5.88;;
50350;SDS011;36250;48.740;22.174;2023-06-24T08:06:18;13.35;;;6.03;;
50350;SDS011;36250;48.740;22.174;2023-06-24T08:08:45;10.88;;;5.57;;
50350;SDS011;36250;48.740;22.174;2023-06-24T08:11:11;9.43;;;5.40;;
50350;SDS011;36250;48.740;22.174;2023-06-24T08:13:37;11.90;;;5.65;;
50350;SDS011;36250;48.740;22.174;2023-06-24T08:16:02;13.13;;;5.95;;
50350;SDS011;36250;48.740;22.174;2023-06-24T08:18:27;11.45;;;6.28;;
50350;SDS011;36250;48.740;22.174;2023-06-24T08:20:53;14.85;;;5.57;;
50350;SDS011;36250;48.740;22.174;2023-06-24T08:23:18;10.02;;;5.50;;
50350;SDS011;36250;48.740;22.174;2023-06-24T08:25:43;12.35;;;6.78;;
50350;SDS011;36250;48.740;22.174;2023-06-24T08:28:09;11.82;;;5.38;;
50350;SDS011;36250;48.740;22.174;2023-06-24T08:30:35;8.73;;;5.60;;
50350;SDS011;36250;48.740;22.174;2023-06-24T08:33:00;16.60;;;5.68;;
50350;SDS011;36250;48.740;22.174;2023-06-24T08:35:25;16.00;;;6.20;;
50350;SDS011;36250;48.740;22.174;2023-06-24T08:37:51;11.02;;;5.72;;
50350;SDS011;36250;48.740;22.174;2023-06-24T08:40:16;14.57;;;4.82;;
50350;SDS011;36250;48.740;22.174;2023-06-24T08:42:43;12.23;;;4.90;;
50350;SDS011;36250;48.740;22.174;2023-06-24T08:45:09;11.23;;;5.47;;
50350;SDS011;36250;48.740;22.174;2023-06-24T08:47:34;14.23;;;5.35;;
50350;SDS011;36250;48.740;22.174;2023-06-24T08:50:04;10.40;;;5.47;;
50350;SDS011;36250;48.740;22.174;2023-06-24T08:52:35;10.55;;;5.35;;
50350;SDS011;36250;48.740;22.174;2023-06-24T08:55:01;12.15;;;4.53;;
50350;SDS011;36250;48.740;22.174;2023-06-24T08:57:29;11.23;;;5.57;;
50350;SDS011;36250;48.740;22.174;2023-06-24T08:59:55;9.43;;;5.80;;
50350;SDS011;36250;48.740;22.174;2023-06-24T09:02:20;13.93;;;5.30;;
50350;SDS011;36250;48.740;22.174;2023-06-24T09:04:45;10.70;;;5.50;;
50350;SDS011;36250;48.740;22.174;2023-06-24T09:07:11;10.50;;;5.15;;
50350;SDS011;36250;48.740;22.174;2023-06-24T09:09:43;18.55;;;5.47;;
50350;SDS011;36250;48.740;22.174;2023-06-24T09:12:13;15.75;;;6.13;;
50350;SDS011;36250;48.740;22.174;2023-06-24T09:14:40;12.48;;;6.30;;
50350;SDS011;36250;48.740;22.174;2023-06-24T09:17:05;15.38;;;6.13;;
50350;SDS011;36250;48.740;22.174;2023-06-24T09:19:31;16.08;;;6.05;;
50350;SDS011;36250;48.740;22.174;2023-06-24T09:22:04;14.00;;;5.97;;
50350;SDS011;36250;48.740;22.174;2023-06-24T09:24:33;8.48;;;5.63;;
50350;SDS011;36250;48.740;22.174;2023-06-24T09:27:00;10.85;;;5.20;;
50350;SDS011;36250;48.740;22.174;2023-06-24T09:29:26;9.93;;;4.85;;
50350;SDS011;36250;48.740;22.174;2023-06-24T09:31:52;13.60;;;4.57;;
50350;SDS011;36250;48.740;22.174;2023-06-24T09:34:19;9.32;;;4.82;;
50350;SDS011;36250;48.740;22.174;2023-06-24T09:36:46;11.52;;;6.13;;
50350;SDS011;36250;48.740;22.174;2023-06-24T09:39:16;8.63;;;6.07;;
50350;SDS011;36250;48.740;22.174;2023-06-24T09:41:42;14.10;;;6.00;;
50350;SDS011;36250;48.740;22.174;2023-06-24T09:44:08;13.38;;;5.82;;
50350;SDS011;36250;48.740;22.174;2023-06-24T09:46:36;11.60;;;6.00;;
50350;SDS011;36250;48.740;22.174;2023-06-24T09:49:06;13.50;;;6.22;;
50350;SDS011;36250;48.740;22.174;2023-06-24T09:51:33;18.23;;;5.72;;
50350;SDS011;36250;48.740;22.174;2023-06-24T09:54:03;17.17;;;5.82;;
50350;SDS011;36250;48.740;22.174;2023-06-24T09:56:31;10.93;;;5.85;;
50350;SDS011;36250;48.740;22.174;2023-06-24T09:58:57;12.27;;;5.75;;
50350;SDS011;36250;48.740;22.174;2023-06-24T10:01:23;6.63;;;5.25;;
50350;SDS011;36250;48.740;22.174;2023-06-24T10:03:48;12.20;;;5.65;;
50350;SDS011;36250;48.740;22.174;2023-06-24T10:06:14;11.90;;;5.40;;
50350;SDS011;36250;48.740;22.174;2023-06-24T10:08:39;12.10;;;5.75;;
50350;SDS011;36250;48.740;22.174;2023-06-24T10:11:05;10.85;;;5.32;;
50350;SDS011;36250;48.740;22.174;2023-06-24T10:13:30;16.35;;;5.57;;
50350;SDS011;36250;48.740;22.174;2023-06-24T10:15:56;9.88;;;5.35;;
50350;SDS011;36250;48.740;22.174;2023-06-24T10:18:32;7.32;;;5.15;;
50350;SDS011;36250;48.740;22.174;2023-06-24T10:21:01;12.35;;;5.60;;
50350;SDS011;36250;48.740;22.174;2023-06-24T10:23:33;11.73;;;6.22;;
50350;SDS011;36250;48.740;22.174;2023-06-24T10:26:09;10.77;;;4.97;;
50350;SDS011;36250;48.740;22.174;2023-06-24T10:36:53;8.25;;;4.60;;
50350;SDS011;36250;48.740;22.174;2023-06-24T10:40:02;11.23;;;5.15;;
50350;SDS011;36250;48.740;22.174;2023-06-24T10:42:27;7.53;;;4.60;;
50350;SDS011;36250;48.740;22.174;2023-06-24T10:47:43;9.32;;;4.88;;
50350;SDS011;36250;48.740;22.174;2023-06-24T10:50:14;5.78;;;4.78;;
50350;SDS011;36250;48.740;22.174;2023-06-24T10:52:42;7.00;;;4.95;;
50350;SDS011;36250;48.740;22.174;2023-06-24T10:55:09;7.63;;;4.55;;
50350;SDS011;36250;48.740;22.174;2023-06-24T10:57:35;7.65;;;5.18;;
50350;SDS011;36250;48.740;22.174;2023-06-24T11:00:01;7.32;;;4.53;;
50350;SDS011;36250;48.740;22.174;2023-06-24T11:02:28;10.52;;;5.13;;
50350;SDS011;36250;48.740;22.174;2023-06-24T11:04:55;9.55;;;5.18;;
50350;SDS011;36250;48.740;22.174;2023-06-24T11:07:25;6.22;;;4.43;;
50350;SDS011;36250;48.740;22.174;2023-06-24T11:12:27;8.90;;;4.75;;
50350;SDS011;36250;48.740;22.174;2023-06-24T11:14:55;9.93;;;5.10;;
50350;SDS011;36250;48.740;22.174;2023-06-24T11:17:21;10.70;;;5.65;;
50350;SDS011;36250;48.740;22.174;2023-06-24T11:19:47;7.97;;;4.13;;
50350;SDS011;36250;48.740;22.174;2023-06-24T11:22:12;8.60;;;4.85;;
50350;SDS011;36250;48.740;22.174;2023-06-24T11:24:37;7.90;;;4.80;;
50350;SDS011;36250;48.740;22.174;2023-06-24T11:27:04;9.57;;;5.25;;
50350;SDS011;36250;48.740;22.174;2023-06-24T11:29:30;10.07;;;4.78;;
50350;SDS011;36250;48.740;22.174;2023-06-24T11:31:57;9.57;;;4.43;;
50350;SDS011;36250;48.740;22.174;2023-06-24T11:34:22;7.45;;;4.35;;
50350;SDS011;36250;48.740;22.174;2023-06-24T11:36:48;6.93;;;4.28;;
50350;SDS011;36250;48.740;22.174;2023-06-24T11:39:21;10.63;;;4.65;;
50350;SDS011;36250;48.740;22.174;2023-06-24T11:41:47;8.40;;;4.15;;
50350;SDS011;36250;48.740;22.174;2023-06-24T11:44:13;11.10;;;4.78;;
50350;SDS011;36250;48.740;22.174;2023-06-24T11:46:38;10.15;;;4.47;;
50350;SDS011;36250;48.740;22.174;2023-06-24T11:51:33;9.90;;;4.10;;
50350;SDS011;36250;48.740;22.174;2023-06-24T11:54:05;7.72;;;4.03;;
50350;SDS011;36250;48.740;22.174;2023-06-24T11:59:20;7.03;;;3.80;;
50350;SDS011;36250;48.740;22.174;2023-06-24T12:01:53;6.13;;;4.13;;
50350;SDS011;36250;48.740;22.174;2023-06-24T12:04:20;6.10;;;3.95;;
50350;SDS011;36250;48.740;22.174;2023-06-24T12:06:46;7.72;;;4.93;;
50350;SDS011;36250;48.740;22.174;2023-06-24T12:09:12;8.70;;;4.70;;
50350;SDS011;36250;48.740;22.174;2023-06-24T12:11:37;7.90;;;5.20;;
50350;SDS011;36250;48.740;22.174;2023-06-24T12:14:03;7.38;;;4.72;;
50350;SDS011;36250;48.740;22.174;2023-06-24T12:16:30;6.10;;;4.38;;
50350;SDS011;36250;48.740;22.174;2023-06-24T12:18:55;11.57;;;4.90;;
50350;SDS011;36250;48.740;22.174;2023-06-24T12:21:21;6.43;;;4.90;;
50350;SDS011;36250;48.740;22.174;2023-06-24T12:23:46;4.95;;;4.53;;
50350;SDS011;36250;48.740;22.174;2023-06-24T12:26:12;7.78;;;3.92;;
50350;SDS011;36250;48.740;22.174;2023-06-24T12:28:37;9.52;;;4.25;;
50350;SDS011;36250;48.740;22.174;2023-06-24T12:31:03;9.05;;;4.85;;
50350;SDS011;36250;48.740;22.174;2023-06-24T12:33:28;6.80;;;4.45;;
50350;SDS011;36250;48.740;22.174;2023-06-24T12:35:54;6.03;;;4.10;;
50350;SDS011;36250;48.740;22.174;2023-06-24T12:38:19;11.98;;;4.38;;
50350;SDS011;36250;48.740;22.174;2023-06-24T12:40:45;8.85;;;5.47;;
50350;SDS011;36250;48.740;22.174;2023-06-24T12:43:11;7.57;;;4.03;;
50350;SDS011;36250;48.740;22.174;2023-06-24T12:45:37;6.97;;;4.65;;
50350;SDS011;36250;48.740;22.174;2023-06-24T12:48:03;8.48;;;4.32;;
50350;SDS011;36250;48.740;22.174;2023-06-24T12:50:29;6.03;;;4.28;;
50350;SDS011;36250;48.740;22.174;2023-06-24T12:52:56;5.50;;;4.43;;
50350;SDS011;36250;48.740;22.174;2023-06-24T12:55:22;8.00;;;4.20;;
50350;SDS011;36250;48.740;22.174;2023-06-24T12:57:47;5.05;;;4.20;;
50350;SDS011;36250;48.740;22.174;2023-06-24T13:00:13;9.95;;;3.75;;
50350;SDS011;36250;48.740;22.174;2023-06-24T13:02:39;8.77;;;4.40;;
50350;SDS011;36250;48.740;22.174;2023-06-24T13:05:04;4.78;;;3.97;;
50350;SDS011;36250;48.740;22.174;2023-06-24T13:07:29;6.13;;;4.10;;
50350;SDS011;36250;48.740;22.174;2023-06-24T13:09:55;4.80;;;3.50;;
50350;SDS011;36250;48.740;22.174;2023-06-24T13:12:20;5.38;;;3.67;;
50350;SDS011;36250;48.740;22.174;2023-06-24T13:14:46;4.63;;;2.28;;
50350;SDS011;36250;48.740;22.174;2023-06-24T13:17:11;5.35;;;2.33;;
50350;SDS011;36250;48.740;22.174;2023-06-24T13:19:36;2.67;;;2.25;;
50350;SDS011;36250;48.740;22.174;2023-06-24T13:22:02;1.80;;;1.70;;
50350;SDS011;36250;48.740;22.174;2023-06-24T13:24:27;2.70;;;1.85;;
50350;SDS011;36250;48.740;22.174;2023-06-24T13:26:52;2.13;;;2.00;;
50350;SDS011;36250;48.740;22.174;2023-06-24T13:29:18;2.63;;;1.70;;
50350;SDS011;36250;48.740;22.174;2023-06-24T13:31:45;3.65;;;1.83;;
50350;SDS011;36250;48.740;22.174;2023-06-24T13:34:11;3.58;;;1.95;;
50350;SDS011;36250;48.740;22.174;2023-06-24T13:36:37;1.65;;;1.55;;
50350;SDS011;36250;48.740;22.174;2023-06-24T13:39:03;3.80;;;1.98;;
50350;SDS011;36250;48.740;22.174;2023-06-24T13:41:30;2.90;;;2.25;;
50350;SDS011;36250;48.740;22.174;2023-06-24T13:43:58;5.93;;;2.00;;
50350;SDS011;36250;48.740;22.174;2023-06-24T13:46:27;4.55;;;1.80;;
50350;SDS011;36250;48.740;22.174;2023-06-24T13:48:53;5.22;;;1.90;;
50350;SDS011;36250;48.740;22.174;2023-06-24T13:51:19;2.53;;;1.60;;
50350;SDS011;36250;48.740;22.174;2023-06-24T13:53:45;1.98;;;1.42;;
50350;SDS011;36250;48.740;22.174;2023-06-24T13:56:12;2.78;;;1.52;;
50350;SDS011;36250;48.740;22.174;2023-06-24T13:58:38;5.22;;;1.75;;
50350;SDS011;36250;48.740;22.174;2023-06-24T14:01:03;4.18;;;1.45;;
50350;SDS011;36250;48.740;22.174;2023-06-24T14:03:29;1.80;;;1.70;;
50350;SDS011;36250;48.740;22.174;2023-06-24T14:05:54;6.18;;;1.77;;
50350;SDS011;36250;48.740;22.174;2023-06-24T14:08:19;1.90;;;1.80;;
50350;SDS011;36250;48.740;22.174;2023-06-24T14:10:45;2.33;;;1.70;;
50350;SDS011;36250;48.740;22.174;2023-06-24T14:13:10;3.92;;;1.80;;
50350;SDS011;36250;48.740;22.174;2023-06-24T14:15:35;2.13;;;2.03;;
50350;SDS011;36250;48.740;22.174;2023-06-24T14:18:01;1.83;;;1.73;;
50350;SDS011;36250;48.740;22.174;2023-06-24T14:20:26;1.63;;;1.38;;
50350;SDS011;36250;48.740;22.174;2023-06-24T14:22:51;3.83;;;1.65;;
50350;SDS011;36250;48.740;22.174;2023-06-24T14:25:17;2.53;;;1.48;;
50350;SDS011;36250;48.740;22.174;2023-06-24T14:27:42;2.20;;;1.50;;
50350;SDS011;36250;48.740;22.174;2023-06-24T14:30:08;3.60;;;1.55;;
50350;SDS011;36250;48.740;22.174;2023-06-24T14:32:33;2.10;;;1.40;;
50350;SDS011;36250;48.740;22.174;2023-06-24T14:34:59;2.30;;;1.90;;
50350;SDS011;36250;48.740;22.174;2023-06-24T14:37:24;3.20;;;1.73;;
50350;SDS011;36250;48.740;22.174;2023-06-24T14:39:49;2.03;;;1.90;;
50350;SDS011;36250;48.740;22.174;2023-06-24T14:42:15;4.85;;;2.08;;
50350;SDS011;36250;48.740;22.174;2023-06-24T14:44:40;3.30;;;2.13;;